createdAt,value
2016-12-08T00:00:33.640Z,0.56
2016-12-08T00:01:27.364Z,0.59
2016-12-08T00:01:58.865Z,0.52
2016-12-08T00:02:52.107Z,0.64
2016-12-08T00:03:45.940Z,0.61
2016-12-08T00:04:39.377Z,0.63
2016-12-08T00:05:32.662Z,0.61
2016-12-08T00:06:24.915Z,0.67
2016-12-08T00:06:54.460Z,0.67
2016-12-08T00:07:46.698Z,0.67
2016-12-08T00:08:18.204Z,0.68
2016-12-08T00:48:55.775Z,0.66
2016-12-08T00:49:30.570Z,0.67
2016-12-08T00:50:23.784Z,0.59
2016-12-08T00:50:53.855Z,0.67
2016-12-08T00:51:45.695Z,0.63
2016-12-08T00:52:38.041Z,0.61
2016-12-08T01:48:12.454Z,0.23
2016-12-08T01:49:03.762Z,0.24
2016-12-08T01:50:14.687Z,0.19
2016-12-08T01:50:44.469Z,0.3
2016-12-08T01:51:54.818Z,0.27
2016-12-08T01:53:05.134Z,0.2
2016-12-08T02:48:51.540Z,0.47
2016-12-08T02:49:41.512Z,0.34
2016-12-08T03:48:44.110Z,0.34
2016-12-08T03:49:37.250Z,0.26
2016-12-08T03:50:08.318Z,0.31
2016-12-08T03:51:02.105Z,0.24
2016-12-08T03:51:53.960Z,0.2
2016-12-08T03:52:46.312Z,0.2
2016-12-08T04:47:25.243Z,0.29
2016-12-08T04:48:18.389Z,0.16
2016-12-08T04:48:50.256Z,0.24
2016-12-08T04:49:43.109Z,0.2
2016-12-08T04:50:14.987Z,0.24
2016-12-08T04:51:08.483Z,0.26
2016-12-08T04:52:02.082Z,0.23
2016-12-08T04:52:55.366Z,0.26
2016-12-08T04:53:49.052Z,0.24
2016-12-08T04:54:43.081Z,0.27
2016-12-08T04:55:36.053Z,0.2
2016-12-08T04:56:29.866Z,0.11
2016-12-08T04:57:22.569Z,0.26
2016-12-08T04:58:16.601Z,0.24
2016-12-08T04:59:10.097Z,0.27
2016-12-08T05:00:03.533Z,0.26
2016-12-08T05:00:57.071Z,0.29
2016-12-08T05:01:50.411Z,0.23
2016-12-08T05:02:44.012Z,0.29
2016-12-08T05:03:37.597Z,0.31
2016-12-08T05:04:31.303Z,0.4
2016-12-08T05:05:24.562Z,0.34
2016-12-08T05:06:17.840Z,0.45
2016-12-08T05:07:11.083Z,0.39
2016-12-08T05:08:04.401Z,0.45
2016-12-08T05:08:57.869Z,0.34
2016-12-08T05:09:51.094Z,0.36
2016-12-08T05:10:44.593Z,0.42
2016-12-08T05:11:37.902Z,0.39
2016-12-08T05:12:31.618Z,0.42
2016-12-08T05:13:25.061Z,0.42
2016-12-08T05:14:18.880Z,0.4
2016-12-08T05:15:12.169Z,0.44
2016-12-08T05:16:05.497Z,0.33
2016-12-08T05:16:59.104Z,0.4
2016-12-08T05:49:16.711Z,-0.06
2016-12-08T05:49:48.397Z,-0.05
2016-12-08T05:50:41.383Z,-0.13
2016-12-08T05:51:33.099Z,-0.17
2016-12-08T05:52:26.681Z,-0.12
2016-12-08T05:53:20.087Z,-0.12
2016-12-08T05:54:13.598Z,-0.15
2016-12-08T05:55:27.526Z,-0.21
2016-12-08T05:56:20.554Z,-0.17
2016-12-08T05:57:13.121Z,-0.1
2016-12-08T05:58:06.574Z,-0.1
2016-12-08T05:59:00.107Z,-0.17
2016-12-08T05:59:53.693Z,-0.13
2016-12-08T06:00:47.050Z,-0.06
2016-12-08T06:01:40.631Z,-0.15
2016-12-08T06:02:34.104Z,-0.09
2016-12-08T06:03:27.538Z,-0.1
2016-12-08T06:04:21.018Z,-0.06
2016-12-08T06:05:14.450Z,-0.03
2016-12-08T06:06:06.215Z,-0.1
2016-12-08T06:06:58.868Z,-0.06
2016-12-08T06:07:52.092Z,-0.05
2016-12-08T06:09:01.750Z,-0.02
2016-12-08T06:10:12.009Z,-0.03
2016-12-08T06:48:46.255Z,-0.03
2016-12-08T06:49:39.473Z,-0.12
2016-12-08T06:50:33.010Z,-0.05
2016-12-08T06:51:26.418Z,-0.09
2016-12-08T06:52:19.983Z,-0.09
2016-12-08T06:53:12.590Z,-0.12
2016-12-08T06:54:06.106Z,-0.13
2016-12-08T06:54:59.445Z,-0.18
2016-12-08T06:55:51.542Z,-0.15
2016-12-08T06:56:44.659Z,-0.15
2016-12-08T06:57:15.690Z,-0.15
2016-12-08T06:58:09.235Z,-0.21
2016-12-08T06:59:02.130Z,-0.13
2016-12-08T06:59:32.095Z,-0.13
2016-12-08T07:00:24.029Z,-0.12
2016-12-08T07:01:17.350Z,-0.15
2016-12-08T07:02:08.946Z,-0.09
2016-12-08T07:49:07.803Z,0.58
2016-12-08T07:50:01.332Z,0.49
2016-12-08T07:50:55.001Z,0.59
2016-12-08T07:51:47.970Z,0.58
2016-12-08T07:52:41.730Z,0.63
2016-12-08T08:51:21.514Z,1.36
2016-12-08T08:52:14.603Z,1.34
2016-12-08T08:53:08.138Z,1.36
2016-12-08T08:54:01.628Z,1.31
2016-12-08T08:54:55.096Z,1.32
2016-12-08T08:55:48.469Z,1.3
2016-12-08T08:56:42.047Z,1.32
2016-12-08T08:57:35.697Z,1.28
2016-12-08T08:58:29.126Z,1.3
2016-12-08T08:59:22.033Z,1.28
2016-12-08T08:59:54.211Z,1.32
2016-12-08T09:00:47.311Z,1.42
2016-12-08T09:01:41.575Z,1.39
2016-12-08T09:02:34.645Z,1.5
2016-12-08T09:03:06.067Z,1.5
2016-12-08T09:03:59.958Z,1.56
2016-12-08T09:04:53.101Z,1.58
2016-12-08T09:05:46.721Z,1.67
2016-12-08T09:06:40.124Z,1.63
2016-12-08T09:07:33.664Z,1.68
2016-12-08T09:08:27.074Z,1.76
2016-12-08T09:09:20.598Z,1.78
2016-12-08T09:10:14.096Z,1.71
2016-12-08T09:11:08.014Z,1.81
2016-12-08T09:12:01.117Z,1.86
2016-12-08T09:12:55.006Z,1.81
2016-12-08T09:13:48.506Z,1.89
2016-12-08T09:14:41.474Z,1.97
2016-12-08T09:15:13.183Z,1.92
2016-12-08T09:16:06.607Z,1.92
2016-12-08T09:16:58.439Z,1.93
2016-12-08T09:17:52.428Z,1.95
2016-12-08T09:18:45.681Z,1.98
2016-12-08T09:19:39.262Z,2.04
2016-12-08T09:20:48.686Z,2.12
2016-12-08T09:51:24.788Z,1.82
2016-12-08T09:52:38.083Z,1.68
2016-12-08T09:53:31.681Z,1.68
2016-12-08T09:54:25.133Z,1.71
2016-12-08T09:55:18.561Z,1.81
2016-12-08T09:56:11.465Z,1.74
2016-12-08T09:57:05.079Z,1.78
2016-12-08T09:57:58.125Z,1.78
2016-12-08T09:58:51.601Z,1.79
2016-12-08T09:59:45.384Z,1.76
2016-12-08T10:00:38.915Z,1.79
2016-12-08T10:01:32.012Z,1.79
2016-12-08T10:02:25.789Z,1.93
2016-12-08T10:03:19.313Z,1.89
2016-12-08T10:04:12.312Z,1.88
2016-12-08T10:04:44.203Z,1.93
2016-12-08T10:05:37.696Z,1.95
2016-12-08T10:06:31.095Z,1.93
2016-12-08T10:07:25.198Z,2.04
2016-12-08T10:08:18.597Z,2.1
2016-12-08T10:09:32.208Z,2.14
2016-12-08T10:10:26.057Z,2.14
2016-12-08T10:11:19.049Z,2.21
2016-12-08T10:12:12.833Z,2.26
2016-12-08T10:13:06.220Z,2.3
2016-12-08T10:13:59.692Z,2.4
2016-12-08T10:14:53.108Z,2.43
2016-12-08T10:15:46.546Z,2.54
2016-12-08T10:16:40.078Z,2.52
2016-12-08T10:17:53.471Z,2.65
2016-12-08T10:18:47.428Z,2.77
2016-12-08T10:19:40.714Z,2.77
2016-12-08T10:50:22.035Z,5.22
2016-12-08T10:51:15.562Z,5.33
2016-12-08T10:52:09.010Z,5.38
2016-12-08T10:53:02.855Z,5.54
2016-12-08T10:53:55.981Z,5.69
2016-12-08T10:54:49.838Z,5.8
2016-12-08T10:55:43.271Z,5.83
2016-12-08T10:56:36.922Z,6.01
2016-12-08T10:57:30.079Z,6.15
2016-12-08T10:58:23.909Z,6.26
2016-12-08T10:59:16.442Z,6.5
2016-12-08T11:00:10.452Z,6.65
2016-12-08T11:00:41.984Z,6.82
2016-12-08T11:01:35.525Z,6.8
2016-12-08T11:02:28.379Z,7
2016-12-08T11:03:22.383Z,7.01
2016-12-08T11:04:14.748Z,7.23
2016-12-08T11:04:44.241Z,7.29
2016-12-08T11:05:56.544Z,7.53
2016-12-08T11:06:49.983Z,7.58
2016-12-08T11:07:43.573Z,7.78
2016-12-08T11:08:35.798Z,7.9
2016-12-08T11:09:27.320Z,8.01
2016-12-08T11:10:37.519Z,8.18
2016-12-08T11:51:22.582Z,12.76
2016-12-08T11:51:54.126Z,12.81
2016-12-08T11:52:47.555Z,12.86
2016-12-08T11:53:41.033Z,12.83
2016-12-08T11:54:34.116Z,12.88
2016-12-08T11:55:05.631Z,12.84
2016-12-08T11:55:59.122Z,12.81
2016-12-08T11:56:52.628Z,12.78
2016-12-08T11:57:45.969Z,12.73
2016-12-08T11:58:39.352Z,12.75
2016-12-08T11:59:32.949Z,12.83
2016-12-08T12:00:04.365Z,12.84
2016-12-08T12:00:34.813Z,12.91
2016-12-08T12:01:06.859Z,12.95
2016-12-08T12:01:59.614Z,13.02
2016-12-08T12:02:52.882Z,13.17
2016-12-08T12:03:46.578Z,13.26
2016-12-08T12:04:38.269Z,13.31
2016-12-08T12:05:31.865Z,13.37
2016-12-08T12:06:03.417Z,13.47
2016-12-08T12:06:57.043Z,13.54
2016-12-08T12:07:28.917Z,13.6
2016-12-08T12:08:22.588Z,13.7
2016-12-08T12:09:13.569Z,13.7
2016-12-08T12:10:23.931Z,13.71
2016-12-08T12:11:34.266Z,13.85
2016-12-08T12:12:44.653Z,14.13
2016-12-08T12:13:54.985Z,14.41
2016-12-08T12:50:49.858Z,13.21
2016-12-08T12:51:43.142Z,13.06
2016-12-08T12:52:36.651Z,12.83
2016-12-08T12:53:30.348Z,12.65
2016-12-08T12:54:01.705Z,12.5
2016-12-08T12:54:33.916Z,12.33
2016-12-08T12:55:27.028Z,12.21
2016-12-08T12:55:58.632Z,11.93
2016-12-08T12:56:49.016Z,11.85
2016-12-08T12:57:19.827Z,11.71
2016-12-08T12:57:49.441Z,11.63
2016-12-08T13:50:31.738Z,10.18
2016-12-08T13:51:03.100Z,10.15
2016-12-08T13:51:34.578Z,10.07
2016-12-08T13:52:05.117Z,10.05
2016-12-08T14:50:14.581Z,4.57
2016-12-08T14:50:46.049Z,4.48
2016-12-08T14:51:17.706Z,4.42
2016-12-08T14:52:11.091Z,4.28
2016-12-08T14:52:42.767Z,4.2
2016-12-08T14:53:13.037Z,4.2
2016-12-08T14:53:43.301Z,4.2
2016-12-08T14:54:13.433Z,4.18
2016-12-08T14:55:06.119Z,4.16
2016-12-08T14:55:36.762Z,4
2016-12-08T14:56:06.029Z,4
2016-12-08T14:57:16.249Z,3.84
2016-12-08T15:50:02.940Z,1.1
2016-12-08T15:50:33.507Z,1.12
2016-12-08T15:51:03.718Z,1.06
2016-12-08T15:51:35.060Z,0.99
2016-12-08T15:52:06.436Z,0.99
2016-12-08T15:52:37.381Z,1.06
2016-12-08T15:53:27.566Z,1.03
2016-12-08T15:53:59.001Z,0.92
2016-12-08T15:54:29.372Z,1.06
2016-12-08T16:50:07.478Z,1.46
2016-12-08T17:50:41.378Z,0.82
2016-12-08T17:51:34.832Z,0.73
2016-12-08T17:52:06.740Z,0.7
2016-12-08T17:52:38.378Z,0.67
2016-12-08T17:53:08.365Z,0.64
2016-12-08T18:49:24.841Z,0.29
2016-12-08T19:48:43.383Z,-0.2
2016-12-08T19:49:14.303Z,-0.28
2016-12-08T19:50:08.200Z,-0.33
2016-12-08T19:51:00.292Z,-0.35
2016-12-08T19:51:30.372Z,-0.44
2016-12-08T19:52:20.555Z,-0.39
2016-12-08T19:53:11.835Z,-0.39
2016-12-08T20:49:54.231Z,-0.44
2016-12-08T20:50:47.511Z,-0.44
2016-12-08T20:51:39.941Z,-0.56
2016-12-08T20:52:10.327Z,-0.46
2016-12-08T20:52:41.583Z,-0.45
2016-12-08T20:53:11.246Z,-0.56
2016-12-08T20:54:23.457Z,-0.6
2016-12-08T20:54:54.726Z,-0.56
2016-12-08T20:56:04.334Z,-0.59
2016-12-08T21:49:17.259Z,-1.48
2016-12-08T21:49:47.053Z,-1.57
2016-12-08T21:50:19.138Z,-1.54
2016-12-08T21:51:11.988Z,-1.63
2016-12-08T21:52:02.145Z,-1.64
2016-12-08T21:53:12.965Z,-1.63
2016-12-08T21:53:44.336Z,-1.63
2016-12-08T21:54:14.250Z,-1.71
2016-12-08T22:50:55.406Z,-0.99
2016-12-08T22:51:49.297Z,-1.03
2016-12-08T22:52:20.557Z,-1
2016-12-08T22:53:13.850Z,-1.14
2016-12-08T22:53:43.214Z,-1.09
2016-12-08T22:54:35.685Z,-1.21
2016-12-08T22:55:04.386Z,-1.15
2016-12-08T23:50:18.334Z,0.74
2016-12-08T23:50:48.453Z,0.68
2016-12-08T23:51:38.357Z,0.61
